sensor_id;sensor_type;location;lat;lon;timestamp;P1;durP1;ratioP1;P2;durP2;ratioP2
15820;SDS011;8011;51.650;7.240;2022-12-07T04:02:06;17.47;;;13.93;;
15820;SDS011;8011;51.650;7.240;2022-12-07T04:04:32;18.27;;;13.53;;
15820;SDS011;8011;51.650;7.240;2022-12-07T04:06:59;19.17;;;14.27;;
15820;SDS011;8011;51.650;7.240;2022-12-07T04:09:25;17.33;;;13.53;;
15820;SDS011;8011;51.650;7.240;2022-12-07T04:14:19;19.30;;;14.60;;
15820;SDS011;8011;51.650;7.240;2022-12-07T04:19:18;17.13;;;14.00;;
15820;SDS011;8011;51.650;7.240;2022-12-07T04:21:45;17.27;;;13.57;;
15820;SDS011;8011;51.650;7.240;2022-12-07T04:24:12;17.00;;;13.40;;
15820;SDS011;8011;51.650;7.240;2022-12-07T04:26:40;17.03;;;12.97;;
15820;SDS011;8011;51.650;7.240;2022-12-07T04:31:55;16.90;;;13.10;;
15820;SDS011;8011;51.650;7.240;2022-12-07T04:34:21;14.67;;;12.57;;
15820;SDS011;8011;51.650;7.240;2022-12-07T04:36:47;16.63;;;12.13;;
15820;SDS011;8011;51.650;7.240;2022-12-07T04:39:17;16.17;;;12.40;;
15820;SDS011;8011;51.650;7.240;2022-12-07T04:41:44;14.27;;;12.03;;
15820;SDS011;8011;51.650;7.240;2022-12-07T04:44:09;14.20;;;12.60;;
15820;SDS011;8011;51.650;7.240;2022-12-07T04:46:36;14.73;;;12.50;;
15820;SDS011;8011;51.650;7.240;2022-12-07T04:49:02;16.13;;;12.70;;
15820;SDS011;8011;51.650;7.240;2022-12-07T04:51:28;18.03;;;12.40;;
15820;SDS011;8011;51.650;7.240;2022-12-07T04:53:54;17.93;;;12.93;;
15820;SDS011;8011;51.650;7.240;2022-12-07T04:56:20;15.47;;;11.87;;
15820;SDS011;8011;51.650;7.240;2022-12-07T04:58:47;17.23;;;11.47;;
15820;SDS011;8011;51.650;7.240;2022-12-07T05:01:14;15.70;;;12.10;;
15820;SDS011;8011;51.650;7.240;2022-12-07T05:03:41;14.90;;;12.87;;
15820;SDS011;8011;51.650;7.240;2022-12-07T05:06:07;17.57;;;12.47;;
15820;SDS011;8011;51.650;7.240;2022-12-07T05:08:33;16.37;;;12.63;;
15820;SDS011;8011;51.650;7.240;2022-12-07T05:10:59;16.40;;;12.00;;
15820;SDS011;8011;51.650;7.240;2022-12-07T05:13:26;16.90;;;13.20;;
15820;SDS011;8011;51.650;7.240;2022-12-07T05:15:51;15.27;;;12.47;;
15820;SDS011;8011;51.650;7.240;2022-12-07T05:18:17;17.97;;;12.90;;
15820;SDS011;8011;51.650;7.240;2022-12-07T05:20:43;15.97;;;11.73;;
15820;SDS011;8011;51.650;7.240;2022-12-07T05:23:09;16.40;;;12.90;;
15820;SDS011;8011;51.650;7.240;2022-12-07T05:25:35;15.57;;;12.73;;
15820;SDS011;8011;51.650;7.240;2022-12-07T05:28:01;14.93;;;12.03;;
15820;SDS011;8011;51.650;7.240;2022-12-07T05:30:27;16.23;;;12.50;;
15820;SDS011;8011;51.650;7.240;2022-12-07T05:32:53;15.77;;;11.70;;
15820;SDS011;8011;51.650;7.240;2022-12-07T05:35:19;16.70;;;12.17;;
15820;SDS011;8011;51.650;7.240;2022-12-07T05:37:45;17.67;;;12.03;;
15820;SDS011;8011;51.650;7.240;2022-12-07T05:40:11;17.57;;;12.10;;
15820;SDS011;8011;51.650;7.240;2022-12-07T05:42:39;15.57;;;12.70;;
15820;SDS011;8011;51.650;7.240;2022-12-07T05:45:04;17.93;;;12.57;;
15820;SDS011;8011;51.650;7.240;2022-12-07T05:47:31;16.80;;;12.13;;
15820;SDS011;8011;51.650;7.240;2022-12-07T05:49:56;15.67;;;11.87;;
15820;SDS011;8011;51.650;7.240;2022-12-07T05:52:22;14.93;;;11.90;;
15820;SDS011;8011;51.650;7.240;2022-12-07T05:54:48;16.20;;;11.73;;
15820;SDS011;8011;51.650;7.240;2022-12-07T05:57:14;16.03;;;11.87;;
15820;SDS011;8011;51.650;7.240;2022-12-07T05:59:39;15.87;;;12.23;;
15820;SDS011;8011;51.650;7.240;2022-12-07T06:02:06;17.03;;;11.80;;
15820;SDS011;8011;51.650;7.240;2022-12-07T06:04:35;13.23;;;10.87;;
15820;SDS011;8011;51.650;7.240;2022-12-07T06:07:03;15.00;;;12.53;;
15820;SDS011;8011;51.650;7.240;2022-12-07T06:09:29;17.67;;;11.30;;
15820;SDS011;8011;51.650;7.240;2022-12-07T06:11:55;15.50;;;11.90;;
15820;SDS011;8011;51.650;7.240;2022-12-07T06:14:40;15.63;;;10.73;;
15820;SDS011;8011;51.650;7.240;2022-12-07T06:17:06;15.07;;;11.90;;
15820;SDS011;8011;51.650;7.240;2022-12-07T06:19:32;14.07;;;11.20;;
15820;SDS011;8011;51.650;7.240;2022-12-07T06:21:58;14.87;;;11.43;;
15820;SDS011;8011;51.650;7.240;2022-12-07T06:24:24;16.73;;;11.80;;
15820;SDS011;8011;51.650;7.240;2022-12-07T06:26:50;16.67;;;11.50;;
15820;SDS011;8011;51.650;7.240;2022-12-07T06:29:16;15.20;;;10.30;;
15820;SDS011;8011;51.650;7.240;2022-12-07T06:31:43;14.10;;;11.13;;
15820;SDS011;8011;51.650;7.240;2022-12-07T06:34:10;13.83;;;10.93;;
15820;SDS011;8011;51.650;7.240;2022-12-07T06:36:40;14.13;;;11.33;;
15820;SDS011;8011;51.650;7.240;2022-12-07T06:39:06;14.77;;;11.00;;
15820;SDS011;8011;51.650;7.240;2022-12-07T06:41:34;14.07;;;10.50;;
15820;SDS011;8011;51.650;7.240;2022-12-07T06:44:04;14.13;;;10.67;;
15820;SDS011;8011;51.650;7.240;2022-12-07T06:46:30;14.10;;;10.83;;
15820;SDS011;8011;51.650;7.240;2022-12-07T06:48:56;13.00;;;10.40;;
15820;SDS011;8011;51.650;7.240;2022-12-07T06:51:22;12.10;;;10.30;;
15820;SDS011;8011;51.650;7.240;2022-12-07T06:53:47;12.13;;;9.83;;
15820;SDS011;8011;51.650;7.240;2022-12-07T06:56:13;12.30;;;9.53;;
15820;SDS011;8011;51.650;7.240;2022-12-07T06:58:39;14.03;;;9.43;;
15820;SDS011;8011;51.650;7.240;2022-12-07T07:01:16;14.67;;;10.13;;
15820;SDS011;8011;51.650;7.240;2022-12-07T07:03:43;13.87;;;10.20;;
15820;SDS011;8011;51.650;7.240;2022-12-07T07:06:10;11.10;;;9.60;;
15820;SDS011;8011;51.650;7.240;2022-12-07T07:08:37;14.10;;;11.23;;
15820;SDS011;8011;51.650;7.240;2022-12-07T07:11:03;13.10;;;10.17;;
15820;SDS011;8011;51.650;7.240;2022-12-07T07:13:29;14.23;;;10.43;;
15820;SDS011;8011;51.650;7.240;2022-12-07T07:15:55;13.23;;;10.47;;
15820;SDS011;8011;51.650;7.240;2022-12-07T07:18:21;13.40;;;10.40;;
15820;SDS011;8011;51.650;7.240;2022-12-07T07:20:47;16.57;;;9.67;;
15820;SDS011;8011;51.650;7.240;2022-12-07T07:23:12;12.00;;;10.13;;
15820;SDS011;8011;51.650;7.240;2022-12-07T07:25:38;10.90;;;9.43;;
15820;SDS011;8011;51.650;7.240;2022-12-07T07:28:04;12.60;;;9.83;;
15820;SDS011;8011;51.650;7.240;2022-12-07T07:30:30;15.90;;;10.17;;
15820;SDS011;8011;51.650;7.240;2022-12-07T07:33:02;14.87;;;10.37;;
15820;SDS011;8011;51.650;7.240;2022-12-07T07:35:29;15.20;;;10.07;;
15820;SDS011;8011;51.650;7.240;2022-12-07T07:37:56;15.00;;;11.53;;
15820;SDS011;8011;51.650;7.240;2022-12-07T07:40:22;13.47;;;9.77;;
15820;SDS011;8011;51.650;7.240;2022-12-07T07:42:49;14.00;;;9.70;;
15820;SDS011;8011;51.650;7.240;2022-12-07T07:45:16;14.17;;;9.87;;
15820;SDS011;8011;51.650;7.240;2022-12-07T07:47:42;11.40;;;9.03;;
15820;SDS011;8011;51.650;7.240;2022-12-07T07:50:08;13.17;;;9.17;;
15820;SDS011;8011;51.650;7.240;2022-12-07T07:52:34;14.33;;;9.20;;
15820;SDS011;8011;51.650;7.240;2022-12-07T07:55:00;11.30;;;9.63;;
15820;SDS011;8011;51.650;7.240;2022-12-07T07:57:25;15.23;;;9.63;;
15820;SDS011;8011;51.650;7.240;2022-12-07T07:59:52;12.43;;;9.40;;
15820;SDS011;8011;51.650;7.240;2022-12-07T08:02:18;12.00;;;9.00;;
15820;SDS011;8011;51.650;7.240;2022-12-07T08:04:45;13.00;;;8.77;;
15820;SDS011;8011;51.650;7.240;2022-12-07T08:07:11;12.53;;;9.37;;
15820;SDS011;8011;51.650;7.240;2022-12-07T08:09:37;10.80;;;9.10;;
15820;SDS011;8011;51.650;7.240;2022-12-07T08:12:03;13.73;;;9.17;;
15820;SDS011;8011;51.650;7.240;2022-12-07T08:14:29;11.67;;;8.47;;
15820;SDS011;8011;51.650;7.240;2022-12-07T08:16:55;12.80;;;8.97;;
15820;SDS011;8011;51.650;7.240;2022-12-07T08:19:21;12.30;;;8.90;;
15820;SDS011;8011;51.650;7.240;2022-12-07T08:21:47;14.50;;;10.00;;
15820;SDS011;8011;51.650;7.240;2022-12-07T08:24:12;14.97;;;9.57;;
15820;SDS011;8011;51.650;7.240;2022-12-07T08:26:39;13.70;;;9.33;;
15820;SDS011;8011;51.650;7.240;2022-12-07T08:29:05;15.47;;;9.53;;
15820;SDS011;8011;51.650;7.240;2022-12-07T08:31:30;13.73;;;10.03;;
15820;SDS011;8011;51.650;7.240;2022-12-07T08:33:56;12.60;;;9.57;;
15820;SDS011;8011;51.650;7.240;2022-12-07T08:36:22;11.63;;;8.83;;
15820;SDS011;8011;51.650;7.240;2022-12-07T08:38:48;14.10;;;9.60;;
15820;SDS011;8011;51.650;7.240;2022-12-07T08:41:14;15.17;;;9.33;;
15820;SDS011;8011;51.650;7.240;2022-12-07T08:43:40;14.73;;;9.17;;
15820;SDS011;8011;51.650;7.240;2022-12-07T08:46:08;13.73;;;8.87;;
15820;SDS011;8011;51.650;7.240;2022-12-07T08:48:41;12.53;;;8.87;;
15820;SDS011;8011;51.650;7.240;2022-12-07T08:51:17;14.47;;;8.73;;
15820;SDS011;8011;51.650;7.240;2022-12-07T08:53:43;11.20;;;8.70;;
15820;SDS011;8011;51.650;7.240;2022-12-07T08:56:09;13.77;;;9.13;;
15820;SDS011;8011;51.650;7.240;2022-12-07T08:58:36;12.47;;;8.47;;
15820;SDS011;8011;51.650;7.240;2022-12-07T09:01:03;13.67;;;9.40;;
15820;SDS011;8011;51.650;7.240;2022-12-07T09:03:29;14.07;;;9.40;;
15820;SDS011;8011;51.650;7.240;2022-12-07T09:05:55;15.17;;;9.97;;
15820;SDS011;8011;51.650;7.240;2022-12-07T09:08:21;12.33;;;8.73;;
15820;SDS011;8011;51.650;7.240;2022-12-07T09:10:51;12.33;;;9.07;;
15820;SDS011;8011;51.650;7.240;2022-12-07T09:13:17;10.97;;;8.93;;
15820;SDS011;8011;51.650;7.240;2022-12-07T09:15:42;15.53;;;10.00;;
15820;SDS011;8011;51.650;7.240;2022-12-07T09:18:08;12.70;;;9.07;;
15820;SDS011;8011;51.650;7.240;2022-12-07T09:20:34;12.87;;;8.87;;
15820;SDS011;8011;51.650;7.240;2022-12-07T09:23:00;12.00;;;8.13;;
15820;SDS011;8011;51.650;7.240;2022-12-07T09:25:25;10.93;;;8.30;;
15820;SDS011;8011;51.650;7.240;2022-12-07T09:27:55;9.57;;;7.83;;
15820;SDS011;8011;51.650;7.240;2022-12-07T09:30:22;12.53;;;8.77;;
15820;SDS011;8011;51.650;7.240;2022-12-07T09:32:47;11.20;;;7.90;;
15820;SDS011;8011;51.650;7.240;2022-12-07T09:35:13;14.97;;;8.17;;
15820;SDS011;8011;51.650;7.240;2022-12-07T09:37:38;10.23;;;7.60;;
15820;SDS011;8011;51.650;7.240;2022-12-07T09:40:04;12.03;;;7.57;;
15820;SDS011;8011;51.650;7.240;2022-12-07T09:42:34;9.53;;;7.30;;
15820;SDS011;8011;51.650;7.240;2022-12-07T09:45:04;14.20;;;8.20;;
15820;SDS011;8011;51.650;7.240;2022-12-07T09:47:31;12.23;;;7.93;;
15820;SDS011;8011;51.650;7.240;2022-12-07T09:50:12;10.03;;;6.93;;
15820;SDS011;8011;51.650;7.240;2022-12-07T09:52:49;13.23;;;7.03;;
15820;SDS011;8011;51.650;7.240;2022-12-07T09:55:19;10.40;;;6.50;;
15820;SDS011;8011;51.650;7.240;2022-12-07T09:57:49;10.70;;;6.37;;
15820;SDS011;8011;51.650;7.240;2022-12-07T10:00:19;8.43;;;6.73;;
15820;SDS011;8011;51.650;7.240;2022-12-07T10:02:50;9.27;;;6.20;;
15820;SDS011;8011;51.650;7.240;2022-12-07T10:05:20;11.53;;;5.83;;
15820;SDS011;8011;51.650;7.240;2022-12-07T10:07:53;6.60;;;5.37;;
15820;SDS011;8011;51.650;7.240;2022-12-07T10:10:32;10.20;;;5.87;;
15820;SDS011;8011;51.650;7.240;2022-12-07T10:21:25;6.27;;;4.57;;
15820;SDS011;8011;51.650;7.240;2022-12-07T10:26:36;11.47;;;5.33;;
15820;SDS011;8011;51.650;7.240;2022-12-07T10:29:15;7.70;;;4.87;;
15820;SDS011;8011;51.650;7.240;2022-12-07T10:31:45;6.93;;;4.63;;
15820;SDS011;8011;51.650;7.240;2022-12-07T10:34:23;8.43;;;4.70;;
15820;SDS011;8011;51.650;7.240;2022-12-07T10:36:52;9.37;;;5.57;;
15820;SDS011;8011;51.650;7.240;2022-12-07T10:39:19;8.37;;;5.20;;
15820;SDS011;8011;51.650;7.240;2022-12-07T10:41:54;11.77;;;5.03;;
15820;SDS011;8011;51.650;7.240;2022-12-07T10:44:22;8.73;;;4.63;;
15820;SDS011;8011;51.650;7.240;2022-12-07T10:47:14;7.40;;;4.63;;
15820;SDS011;8011;51.650;7.240;2022-12-07T10:52:28;9.73;;;5.20;;
15820;SDS011;8011;51.650;7.240;2022-12-07T10:57:45;8.87;;;4.20;;
15820;SDS011;8011;51.650;7.240;2022-12-07T11:00:24;8.67;;;4.37;;
15820;SDS011;8011;51.650;7.240;2022-12-07T11:05:56;6.17;;;4.07;;
15820;SDS011;8011;51.650;7.240;2022-12-07T11:13:53;6.00;;;4.20;;
15820;SDS011;8011;51.650;7.240;2022-12-07T11:22:32;9.57;;;3.83;;
15820;SDS011;8011;51.650;7.240;2022-12-07T11:24:49;6.20;;;3.63;;
15820;SDS011;8011;51.650;7.240;2022-12-07T11:27:37;6.23;;;3.47;;
15820;SDS011;8011;51.650;7.240;2022-12-07T11:33:29;8.67;;;3.30;;
15820;SDS011;8011;51.650;7.240;2022-12-07T11:41:09;9.33;;;3.60;;
15820;SDS011;8011;51.650;7.240;2022-12-07T11:43:42;5.20;;;3.07;;
15820;SDS011;8011;51.650;7.240;2022-12-07T11:46:17;10.63;;;3.57;;
15820;SDS011;8011;51.650;7.240;2022-12-07T11:48:49;4.73;;;2.97;;
15820;SDS011;8011;51.650;7.240;2022-12-07T11:51:18;5.87;;;3.03;;
15820;SDS011;8011;51.650;7.240;2022-12-07T11:56:19;8.40;;;3.40;;
15820;SDS011;8011;51.650;7.240;2022-12-07T12:03:38;5.80;;;3.07;;
15820;SDS011;8011;51.650;7.240;2022-12-07T12:06:08;5.93;;;3.00;;
15820;SDS011;8011;51.650;7.240;2022-12-07T12:08:36;7.23;;;2.90;;
15820;SDS011;8011;51.650;7.240;2022-12-07T12:22:10;10.03;;;3.10;;
15820;SDS011;8011;51.650;7.240;2022-12-07T12:24:43;6.33;;;3.30;;
15820;SDS011;8011;51.650;7.240;2022-12-07T12:27:19;5.57;;;4.07;;
15820;SDS011;8011;51.650;7.240;2022-12-07T12:29:57;4.47;;;3.03;;
15820;SDS011;8011;51.650;7.240;2022-12-07T12:38:20;10.47;;;3.30;;
15820;SDS011;8011;51.650;7.240;2022-12-07T12:40:58;5.93;;;2.90;;
15820;SDS011;8011;51.650;7.240;2022-12-07T12:43:42;6.57;;;3.50;;
15820;SDS011;8011;51.650;7.240;2022-12-07T12:51:57;7.63;;;3.57;;
15820;SDS011;8011;51.650;7.240;2022-12-07T12:54:31;9.30;;;2.73;;
15820;SDS011;8011;51.650;7.240;2022-12-07T12:57:00;7.60;;;2.47;;
15820;SDS011;8011;51.650;7.240;2022-12-07T12:59:55;6.70;;;2.60;;
15820;SDS011;8011;51.650;7.240;2022-12-07T13:04:58;7.70;;;2.77;;
15820;SDS011;8011;51.650;7.240;2022-12-07T13:21:01;5.63;;;2.30;;
15820;SDS011;8011;51.650;7.240;2022-12-07T13:34:03;6.23;;;2.00;;
15820;SDS011;8011;51.650;7.240;2022-12-07T13:36:36;6.93;;;2.70;;
15820;SDS011;8011;51.650;7.240;2022-12-07T13:39:20;6.40;;;2.13;;
15820;SDS011;8011;51.650;7.240;2022-12-07T13:41:57;3.23;;;1.53;;
15820;SDS011;8011;51.650;7.240;2022-12-07T13:44:25;2.67;;;1.60;;
15820;SDS011;8011;51.650;7.240;2022-12-07T13:49:48;2.30;;;1.43;;
15820;SDS011;8011;51.650;7.240;2022-12-07T13:52:20;5.57;;;1.40;;
15820;SDS011;8011;51.650;7.240;2022-12-07T13:55:00;3.57;;;1.40;;
15820;SDS011;8011;51.650;7.240;2022-12-07T13:57:50;9.67;;;2.93;;
15820;SDS011;8011;51.650;7.240;2022-12-07T14:00:18;4.17;;;1.77;;
15820;SDS011;8011;51.650;7.240;2022-12-07T14:02:57;4.10;;;1.43;;
15820;SDS011;8011;51.650;7.240;2022-12-07T14:05:28;2.80;;;1.80;;
15820;SDS011;8011;51.650;7.240;2022-12-07T14:07:59;3.70;;;1.50;;
15820;SDS011;8011;51.650;7.240;2022-12-07T14:10:27;3.77;;;2.10;;
15820;SDS011;8011;51.650;7.240;2022-12-07T14:13:01;3.00;;;1.50;;
15820;SDS011;8011;51.650;7.240;2022-12-07T14:15:29;5.03;;;1.87;;
15820;SDS011;8011;51.650;7.240;2022-12-07T14:17:57;4.27;;;1.60;;
15820;SDS011;8011;51.650;7.240;2022-12-07T14:20:35;5.43;;;1.80;;
15820;SDS011;8011;51.650;7.240;2022-12-07T14:23:02;4.10;;;1.80;;
15820;SDS011;8011;51.650;7.240;2022-12-07T14:25:44;6.00;;;1.93;;
15820;SDS011;8011;51.650;7.240;2022-12-07T14:31:21;6.80;;;1.97;;
15820;SDS011;8011;51.650;7.240;2022-12-07T14:33:49;5.37;;;2.20;;
15820;SDS011;8011;51.650;7.240;2022-12-07T14:36:15;4.73;;;2.37;;
15820;SDS011;8011;51.650;7.240;2022-12-07T14:38:41;5.77;;;2.17;;
15820;SDS011;8011;51.650;7.240;2022-12-07T14:41:10;6.97;;;2.93;;
15820;SDS011;8011;51.650;7.240;2022-12-07T14:43:58;7.33;;;2.90;;
15820;SDS011;8011;51.650;7.240;2022-12-07T14:46:24;5.57;;;2.70;;
15820;SDS011;8011;51.650;7.240;2022-12-07T14:48:51;5.43;;;2.60;;
15820;SDS011;8011;51.650;7.240;2022-12-07T14:51:16;5.33;;;2.63;;
15820;SDS011;8011;51.650;7.240;2022-12-07T14:53:44;4.10;;;2.20;;
15820;SDS011;8011;51.650;7.240;2022-12-07T14:56:13;5.90;;;2.33;;
15820;SDS011;8011;51.650;7.240;2022-12-07T14:58:39;6.13;;;2.87;;
15820;SDS011;8011;51.650;7.240;2022-12-07T15:01:05;4.23;;;2.63;;
15820;SDS011;8011;51.650;7.240;2022-12-07T15:03:31;4.93;;;2.33;;
15820;SDS011;8011;51.650;7.240;2022-12-07T15:05:57;5.90;;;2.50;;
15820;SDS011;8011;51.650;7.240;2022-12-07T15:08:22;5.97;;;2.60;;
15820;SDS011;8011;51.650;7.240;2022-12-07T15:10:49;4.57;;;2.17;;
15820;SDS011;8011;51.650;7.240;2022-12-07T15:13:14;5.03;;;2.47;;
15820;SDS011;8011;51.650;7.240;2022-12-07T15:15:59;6.03;;;2.50;;
15820;SDS011;8011;51.650;7.240;2022-12-07T15:18:25;4.27;;;2.23;;
15820;SDS011;8011;51.650;7.240;2022-12-07T15:20:50;6.10;;;2.30;;
15820;SDS011;8011;51.650;7.240;2022-12-07T15:23:16;5.00;;;2.90;;
15820;SDS011;8011;51.650;7.240;2022-12-07T15:25:43;6.50;;;2.60;;
15820;SDS011;8011;51.650;7.240;2022-12-07T15:28:10;6.67;;;3.00;;
15820;SDS011;8011;51.650;7.240;2022-12-07T15:30:39;4.77;;;2.70;;
15820;SDS011;8011;51.650;7.240;2022-12-07T15:33:07;4.23;;;2.57;;
15820;SDS011;8011;51.650;7.240;2022-12-07T15:35:33;4.60;;;2.97;;
15820;SDS011;8011;51.650;7.240;2022-12-07T15:38:03;6.80;;;2.93;;
15820;SDS011;8011;51.650;7.240;2022-12-07T15:40:29;7.30;;;2.60;;
15820;SDS011;8011;51.650;7.240;2022-12-07T15:42:55;4.73;;;3.10;;
15820;SDS011;8011;51.650;7.240;2022-12-07T15:45:20;9.90;;;3.30;;
15820;SDS011;8011;51.650;7.240;2022-12-07T15:47:46;4.10;;;2.93;;
15820;SDS011;8011;51.650;7.240;2022-12-07T15:50:14;7.20;;;3.03;;
15820;SDS011;8011;51.650;7.240;2022-12-07T15:52:41;3.97;;;2.90;;
15820;SDS011;8011;51.650;7.240;2022-12-07T15:55:07;5.07;;;2.87;;
15820;SDS011;8011;51.650;7.240;2022-12-07T15:57:35;4.17;;;2.80;;
15820;SDS011;8011;51.650;7.240;2022-12-07T16:00:02;5.37;;;2.97;;
15820;SDS011;8011;51.650;7.240;2022-12-07T16:02:29;6.63;;;3.63;;
15820;SDS011;8011;51.650;7.240;2022-12-07T16:04:54;8.80;;;4.10;;
15820;SDS011;8011;51.650;7.240;2022-12-07T16:07:20;6.70;;;3.57;;
15820;SDS011;8011;51.650;7.240;2022-12-07T16:09:46;5.90;;;3.60;;
15820;SDS011;8011;51.650;7.240;2022-12-07T16:12:12;7.93;;;3.77;;
15820;SDS011;8011;51.650;7.240;2022-12-07T16:14:39;9.30;;;3.57;;
15820;SDS011;8011;51.650;7.240;2022-12-07T16:17:06;6.27;;;3.70;;
15820;SDS011;8011;51.650;7.240;2022-12-07T16:19:32;6.13;;;3.70;;
15820;SDS011;8011;51.650;7.240;2022-12-07T16:21:59;4.60;;;3.43;;
15820;SDS011;8011;51.650;7.240;2022-12-07T16:24:25;6.47;;;3.70;;
15820;SDS011;8011;51.650;7.240;2022-12-07T16:26:51;4.23;;;3.40;;
15820;SDS011;8011;51.650;7.240;2022-12-07T16:29:18;6.47;;;3.47;;
15820;SDS011;8011;51.650;7.240;2022-12-07T16:31:44;4.40;;;3.10;;
15820;SDS011;8011;51.650;7.240;2022-12-07T16:34:10;5.20;;;3.33;;
15820;SDS011;8011;51.650;7.240;2022-12-07T16:36:36;5.03;;;3.43;;
15820;SDS011;8011;51.650;7.240;2022-12-07T16:39:02;5.23;;;3.67;;
15820;SDS011;8011;51.650;7.240;2022-12-07T16:41:28;6.70;;;3.73;;
15820;SDS011;8011;51.650;7.240;2022-12-07T16:43:54;6.40;;;3.50;;
15820;SDS011;8011;51.650;7.240;2022-12-07T16:46:20;6.80;;;4.10;;
15820;SDS011;8011;51.650;7.240;2022-12-07T16:48:46;6.00;;;3.70;;
15820;SDS011;8011;51.650;7.240;2022-12-07T16:51:12;8.33;;;3.60;;
15820;SDS011;8011;51.650;7.240;2022-12-07T16:53:39;5.50;;;3.67;;
15820;SDS011;8011;51.650;7.240;2022-12-07T16:56:14;6.27;;;3.33;;
15820;SDS011;8011;51.650;7.240;2022-12-07T16:58:41;7.07;;;3.20;;
15820;SDS011;8011;51.650;7.240;2022-12-07T17:01:08;8.13;;;3.03;;
15820;SDS011;8011;51.650;7.240;2022-12-07T17:03:41;6.40;;;2.50;;
15820;SDS011;8011;51.650;7.240;2022-12-07T17:06:12;6.50;;;3.00;;
15820;SDS011;8011;51.650;7.240;2022-12-07T17:08:43;3.23;;;2.93;;
15820;SDS011;8011;51.650;7.240;2022-12-07T17:11:10;5.13;;;2.90;;
15820;SDS011;8011;51.650;7.240;2022-12-07T17:13:40;4.90;;;2.60;;
15820;SDS011;8011;51.650;7.240;2022-12-07T17:16:24;5.63;;;2.60;;
15820;SDS011;8011;51.650;7.240;2022-12-07T17:18:50;5.93;;;2.23;;
15820;SDS011;8011;51.650;7.240;2022-12-07T17:21:16;4.97;;;2.40;;
15820;SDS011;8011;51.650;7.240;2022-12-07T17:23:42;6.10;;;2.60;;
15820;SDS011;8011;51.650;7.240;2022-12-07T17:26:08;5.87;;;2.70;;
15820;SDS011;8011;51.650;7.240;2022-12-07T17:28:45;5.00;;;3.00;;
15820;SDS011;8011;51.650;7.240;2022-12-07T17:31:12;7.63;;;3.83;;
15820;SDS011;8011;51.650;7.240;2022-12-07T17:33:39;6.33;;;3.60;;
15820;SDS011;8011;51.650;7.240;2022-12-07T17:36:11;6.83;;;3.30;;
15820;SDS011;8011;51.650;7.240;2022-12-07T17:38:39;5.20;;;3.80;;
15820;SDS011;8011;51.650;7.240;2022-12-07T17:41:09;6.50;;;4.03;;
15820;SDS011;8011;51.650;7.240;2022-12-07T17:44:13;7.77;;;4.00;;
15820;SDS011;8011;51.650;7.240;2022-12-07T17:46:40;6.60;;;3.73;;
15820;SDS011;8011;51.650;7.240;2022-12-07T17:49:06;6.33;;;4.13;;
15820;SDS011;8011;51.650;7.240;2022-12-07T17:51:32;8.90;;;4.23;;
15820;SDS011;8011;51.650;7.240;2022-12-07T17:54:17;5.87;;;4.07;;
15820;SDS011;8011;51.650;7.240;2022-12-07T17:56:43;7.83;;;4.53;;
15820;SDS011;8011;51.650;7.240;2022-12-07T17:59:09;5.30;;;3.93;;
15820;SDS011;8011;51.650;7.240;2022-12-07T18:01:35;7.47;;;4.10;;
15820;SDS011;8011;51.650;7.240;2022-12-07T18:04:02;4.80;;;4.07;;
15820;SDS011;8011;51.650;7.240;2022-12-07T18:06:28;9.30;;;4.10;;
15820;SDS011;8011;51.650;7.240;2022-12-07T18:08:53;5.20;;;3.73;;
15820;SDS011;8011;51.650;7.240;2022-12-07T18:11:19;7.67;;;4.30;;
15820;SDS011;8011;51.650;7.240;2022-12-07T18:13:45;6.63;;;4.33;;
15820;SDS011;8011;51.650;7.240;2022-12-07T18:16:15;9.93;;;6.10;;
15820;SDS011;8011;51.650;7.240;2022-12-07T18:18:42;7.77;;;4.67;;
15820;SDS011;8011;51.650;7.240;2022-12-07T18:21:11;7.03;;;5.53;;
15820;SDS011;8011;51.650;7.240;2022-12-07T18:23:40;11.70;;;6.40;;
15820;SDS011;8011;51.650;7.240;2022-12-07T18:26:10;9.80;;;6.10;;
15820;SDS011;8011;51.650;7.240;2022-12-07T18:28:37;9.10;;;5.87;;
15820;SDS011;8011;51.650;7.240;2022-12-07T18:31:04;6.47;;;5.30;;
15820;SDS011;8011;51.650;7.240;2022-12-07T18:33:29;9.47;;;5.63;;
15820;SDS011;8011;51.650;7.240;2022-12-07T18:35:57;8.33;;;5.27;;
15820;SDS011;8011;51.650;7.240;2022-12-07T18:38:24;8.87;;;5.53;;
15820;SDS011;8011;51.650;7.240;2022-12-07T18:40:51;7.33;;;5.43;;
15820;SDS011;8011;51.650;7.240;2022-12-07T18:43:16;5.20;;;4.70;;
15820;SDS011;8011;51.650;7.240;2022-12-07T18:45:43;5.20;;;4.20;;
15820;SDS011;8011;51.650;7.240;2022-12-07T18:48:13;4.83;;;4.03;;
15820;SDS011;8011;51.650;7.240;2022-12-07T18:50:40;6.10;;;3.90;;
15820;SDS011;8011;51.650;7.240;2022-12-07T18:53:05;6.67;;;5.30;;
15820;SDS011;8011;51.650;7.240;2022-12-07T18:55:31;7.33;;;4.73;;
15820;SDS011;8011;51.650;7.240;2022-12-07T18:57:57;8.33;;;5.23;;
15820;SDS011;8011;51.650;7.240;2022-12-07T19:00:24;5.90;;;4.67;;
15820;SDS011;8011;51.650;7.240;2022-12-07T19:02:51;6.97;;;5.20;;
15820;SDS011;8011;51.650;7.240;2022-12-07T19:05:18;10.60;;;5.03;;
15820;SDS011;8011;51.650;7.240;2022-12-07T19:07:44;6.43;;;4.63;;
15820;SDS011;8011;51.650;7.240;2022-12-07T19:10:11;6.83;;;5.30;;
15820;SDS011;8011;51.650;7.240;2022-12-07T19:12:38;10.53;;;5.30;;
15820;SDS011;8011;51.650;7.240;2022-12-07T19:15:04;10.07;;;6.77;;
15820;SDS011;8011;51.650;7.240;2022-12-07T19:17:31;5.73;;;3.60;;
15820;SDS011;8011;51.650;7.240;2022-12-07T19:19:58;5.03;;;4.10;;
15820;SDS011;8011;51.650;7.240;2022-12-07T19:22:23;8.23;;;4.00;;
15820;SDS011;8011;51.650;7.240;2022-12-07T19:24:52;7.63;;;4.73;;
15820;SDS011;8011;51.650;7.240;2022-12-07T19:27:19;6.97;;;4.80;;
15820;SDS011;8011;51.650;7.240;2022-12-07T19:29:46;5.63;;;3.83;;
15820;SDS011;8011;51.650;7.240;2022-12-07T19:32:13;4.17;;;3.40;;
15820;SDS011;8011;51.650;7.240;2022-12-07T19:34:40;6.67;;;3.70;;
15820;SDS011;8011;51.650;7.240;2022-12-07T19:37:08;4.57;;;2.70;;
15820;SDS011;8011;51.650;7.240;2022-12-07T19:39:35;3.33;;;2.13;;
15820;SDS011;8011;51.650;7.240;2022-12-07T19:42:01;4.07;;;2.30;;
15820;SDS011;8011;51.650;7.240;2022-12-07T19:44:27;4.97;;;1.90;;
15820;SDS011;8011;51.650;7.240;2022-12-07T19:46:55;2.80;;;1.90;;
15820;SDS011;8011;51.650;7.240;2022-12-07T19:49:23;4.70;;;1.97;;
15820;SDS011;8011;51.650;7.240;2022-12-07T19:51:51;4.90;;;1.90;;
15820;SDS011;8011;51.650;7.240;2022-12-07T19:54:19;3.10;;;1.80;;
15820;SDS011;8011;51.650;7.240;2022-12-07T19:56:46;3.10;;;1.80;;
15820;SDS011;8011;51.650;7.240;2022-12-07T19:59:13;2.13;;;1.60;;
15820;SDS011;8011;51.650;7.240;2022-12-07T20:01:43;3.27;;;1.70;;
15820;SDS011;8011;51.650;7.240;2022-12-07T20:04:10;2.10;;;1.67;;
15820;SDS011;8011;51.650;7.240;2022-12-07T20:06:37;1.77;;;1.53;;
15820;SDS011;8011;51.650;7.240;2022-12-07T20:09:03;3.90;;;2.10;;
15820;SDS011;8011;51.650;7.240;2022-12-07T20:11:29;4.60;;;1.90;;
15820;SDS011;8011;51.650;7.240;2022-12-07T20:14:14;2.77;;;2.33;;
15820;SDS011;8011;51.650;7.240;2022-12-07T20:16:40;2.03;;;1.83;;
15820;SDS011;8011;51.650;7.240;2022-12-07T20:19:06;2.50;;;2.10;;
15820;SDS011;8011;51.650;7.240;2022-12-07T20:21:33;4.03;;;2.87;;
15820;SDS011;8011;51.650;7.240;2022-12-07T20:24:00;4.57;;;3.40;;
15820;SDS011;8011;51.650;7.240;2022-12-07T20:26:26;5.40;;;3.43;;
15820;SDS011;8011;51.650;7.240;2022-12-07T20:28:52;6.03;;;4.20;;
15820;SDS011;8011;51.650;7.240;2022-12-07T20:31:18;3.80;;;3.37;;
15820;SDS011;8011;51.650;7.240;2022-12-07T20:33:45;6.57;;;4.10;;
15820;SDS011;8011;51.650;7.240;2022-12-07T20:36:11;7.40;;;4.57;;
15820;SDS011;8011;51.650;7.240;2022-12-07T20:38:38;6.87;;;5.40;;
15820;SDS011;8011;51.650;7.240;2022-12-07T20:41:05;9.37;;;6.00;;
15820;SDS011;8011;51.650;7.240;2022-12-07T20:43:32;8.03;;;6.47;;
15820;SDS011;8011;51.650;7.240;2022-12-07T20:45:58;9.50;;;6.80;;
15820;SDS011;8011;51.650;7.240;2022-12-07T20:48:24;10.90;;;7.97;;
15820;SDS011;8011;51.650;7.240;2022-12-07T20:50:50;8.33;;;6.73;;